Hampton, NH (03842)

8:26 AM EST on March 01, 2015 (GMT -0500)
Between beach and center of town | Change Station
CLOSE
Current Station
Personal Weather Station
Location: Hampton, NH
Elevation: 69 ft
Nearby Weather Stations

Elev 69 ft 42.94 °N, 70.83 °W | Updated 14 minutes ago

Overcast
Overcast
15.1 °F
Feels Like 15 °F
N
0.9
Wind Variable Wind from North

Today
High -- | Low -- °F
--% Chance of Precip.
Yesterday
High -- | Low -- °F
Precip. -- in
6:19 AM 5:32 PM
Waxing Gibbous, 85% visible
Pressure 30.68 in
Visibility 10.0 miles
Clouds Scattered Clouds 14000 ft
Overcast 25000 ft
Windchill 15 °F
Dew Point 2 °F
Humidity 55%
Rainfall -999.00 in
Snow Depth Not available.
UV 0 out of 12
Pollen .30 out of 12
Air Quality Not available.
Flu Activity Not available.
METAR KPSM 011258Z 00000KT 10SM SCT140 OVC250 M14/M19 A3066 RMK AO2A SLP388 T11411187

More Conditions Fewer Conditions

Pressure 30.68 in
Visibility 10.0 miles
Clouds Scattered Clouds 14000 ft
Overcast 25000 ft
Windchill 15 °F
Dew Point 2 °F
Humidity 55%
Rainfall -999.00 in
Snow Depth Not available.
UV 0 out of 12
Pollen .30 out of 12
Air Quality Not available.
Flu Activity Not available.
METAR KPSM 011258Z 00000KT 10SM SCT140 OVC250 M14/M19 A3066 RMK AO2A SLP388 T11411187

More Conditions Fewer Conditions

10-Day Weather Forecast

Almanac

Astronomy

Mar. 01, 2015 Rise Set
Actual Time
Civil Twilight
Nautical Twilight
Astronomical Twilight
Moon
Length of Visible Light
Length of Day
Tomorrow will be .
, % of the Moon is Illuminated

Today's Extremes

State Highs State Lows

Community

WunderPhotos

Upload Photos

1,801,380 photos uploaded!

WunderBlogs® & News

Nearby

Air Quality

  Air Quality AQ Index Pollutant
Not available.

Snow Depth

Station Depth Elevation

Earthquake Activity

City Distance Mag. Time & Date
Minimum magnitude displayed is 2.5.

Coastal Water Temperatures

Place Temperature

Nearby Weather Stations